Baltimore, Maryland
Traffic Map
Current Weather Conditions
Baltimore, Maryland
Broken Clouds
Broken Clouds
40°
Feels Like: 34°
Wind Chill: 34° Ceiling: 19000
Heat Index: 40° Visibility: 10mi
Dew Point: 31° Wind: 8mph
Humidity: 70% Direction: 150° (SSE)
Pressure: 29.91in Gusts: 0mph
Raw Report DataKBWI 120254Z 15007KT 10SM FEW085 BKN190 04/M01 A2991 RMK AO2 SLP129 T00441006 58018
Traffic Incident Summary
Active as of:
Severity:
Category:
InformationThere was an issue retrieving the traffic information for this location. Please try a different location or try again shortly.
Advertisements